メインページ
METAR-TAF:

METAR-TAF

空港 :

アンカレッジ, アラスカ州, アメリカ合衆国

テッド・スティーブンス・アンカレッジ国際空港

緯度: 61-10-28N, 経度: 149-59-46W, 海抜: 44m

現時点の気象観測

当レポートは13分前の11:53(UTC)に作成
北東の風 5kt
気温 -9°C
湿度 62%
気圧 1011 hPa
視程: 16.1km
晴天

METAR: PANC 241153Z 04005KT 10SM CLR M09/M15 A2984 RMK AO2 SLP107 4/020 T10891150 11050 21089 53004

時間: 04:06 (12:06 UTC)

予報

当レポートは46分前の11:20(UTC)に作成
予報は24日の 12時(UTC)から 25日の 18時(UTC)まで有効
の風 5kt
視程: 10km
晴天

TAF: PANC 241120Z 2412/2518 35005KT P6SM SKC

4,000以上の空港の気象観測と天気予報(METAR報とTAF報)

利用可能な観測所は地図上に黄色い丸と赤い丸で示す。

丸の上にカーソルを重ねると観測所名を参照できる。

次にクリックすると気象観測と天気予報を参照できる。

マップの切り替え:黒色「×」印の緑ボタンをクリックして拡大、「-」印の緑ボタンをクリックして縮小、緑色の三角印をクリックして隣りの地図に切り替え


METAR-TAF: